Time;durP1;ratioP1;P1;durP2;ratioP2;P2;SDS_P1;SDS_P2;PMS_P1;PMS_P2;Temp;Humidity;BMP_temperature;BMP_pressure;BME280_temperature;BME280_humidity;BME280_pressure;Samples;Min_cycle;Max_cycle;Signal;HPM_P1;HPM_P2
2022/06/26 00:01:05;;;;;;;5.20;2.03;;;;;;;18.12;69.05;100788.75;5052573;28;20052;-71
2022/06/26 00:03:33;;;;;;;8.65;1.80;;;;;;;18.23;70.09;100794.59;5055255;28;20128;-71
2022/06/26 00:06:00;;;;;;;6.75;1.83;;;;;;;18.11;69.68;100795.53;5057601;28;20048;-71
2022/06/26 00:08:28;;;;;;;7.85;1.98;;;;;;;18.01;70.35;100796.03;5054042;28;20053;-71
2022/06/26 00:10:55;;;;;;;5.53;1.85;;;;;;;17.87;70.75;100799.31;5055697;28;20036;-70
2022/06/26 00:13:22;;;;;;;4.82;1.80;;;;;;;18.11;71.34;100794.69;5068454;28;20048;-71
2022/06/26 00:15:50;;;;;;;7.75;1.80;;;;;;;18.00;70.89;100797.22;5070530;28;20056;-70
2022/06/26 00:18:17;;;;;;;4.93;1.55;;;;;;;18.02;71.04;100802.44;5078726;28;20115;-69
2022/06/26 00:20:45;;;;;;;5.72;2.00;;;;;;;18.13;71.63;100801.53;5072953;28;20059;-71
2022/06/26 00:23:12;;;;;;;8.82;2.30;;;;;;;17.91;71.10;100796.59;5070939;28;20052;-70
2022/06/26 00:25:39;;;;;;;8.20;1.85;;;;;;;17.85;71.66;100798.06;5079262;28;20053;-69
2022/06/26 00:28:07;;;;;;;9.77;2.40;;;;;;;17.93;72.05;100791.47;5069288;28;20045;-70
2022/06/26 00:30:34;;;;;;;10.63;3.13;;;;;;;17.93;70.52;100783.94;5061950;28;20052;-70
2022/06/26 00:33:02;;;;;;;9.13;4.43;;;;;;;17.80;70.99;100787.19;5048487;28;20045;-69
2022/06/26 00:35:29;;;;;;;11.63;5.68;;;;;;;17.59;71.71;100779.06;5053052;28;20058;-71
2022/06/26 00:37:57;;;;;;;12.55;5.85;;;;;;;17.60;71.83;100783.50;5040986;28;20040;-71
2022/06/26 00:40:24;;;;;;;16.45;6.63;;;;;;;17.71;72.65;100786.56;5071501;28;20047;-70
2022/06/26 00:42:51;;;;;;;12.30;3.90;;;;;;;17.87;72.88;100785.38;5051277;28;20045;-69
2022/06/26 00:45:19;;;;;;;6.35;2.08;;;;;;;17.86;72.53;100780.97;5074479;28;20052;-69
2022/06/26 00:47:46;;;;;;;8.50;2.40;;;;;;;17.79;71.07;100778.00;5037081;28;20048;-69
2022/06/26 00:50:14;;;;;;;5.63;1.88;;;;;;;17.78;71.78;100781.16;5075626;28;20079;-71
2022/06/26 00:52:41;;;;;;;8.20;3.08;;;;;;;17.85;72.27;100792.47;5050728;28;20051;-69
2022/06/26 00:55:09;;;;;;;8.52;1.73;;;;;;;17.63;71.75;100802.28;5055790;28;20052;-69
2022/06/26 00:57:37;;;;;;;6.13;1.90;;;;;;;17.88;73.07;100791.75;5074850;28;20052;-70
2022/06/26 01:00:07;;;;;;;8.25;1.90;;;;;;;17.68;72.95;100804.78;5073110;28;20048;-70
2022/06/26 01:02:34;;;;;;;11.15;2.67;;;;;;;17.64;71.93;100798.31;5072096;28;20053;-70
2022/06/26 01:05:01;;;;;;;7.38;2.30;;;;;;;17.59;72.52;100793.00;5049562;28;20476;-68
2022/06/26 01:07:29;;;;;;;6.97;2.30;;;;;;;17.50;71.39;100789.59;5080156;28;20052;-69
2022/06/26 01:09:56;;;;;;;10.90;2.55;;;;;;;17.53;72.24;100791.66;5060743;28;20440;-69
2022/06/26 01:12:24;;;;;;;7.45;2.22;;;;;;;17.42;72.29;100795.28;5075657;28;20061;-69
2022/06/26 01:14:52;;;;;;;10.77;2.17;;;;;;;17.70;73.17;100813.59;5057028;28;20393;-70
2022/06/26 01:17:19;;;;;;;9.25;2.10;;;;;;;17.45;72.33;100814.88;5060586;28;20053;-70
2022/06/26 01:19:47;;;;;;;5.00;1.90;;;;;;;17.58;75.44;100812.84;5067301;28;20056;-69
2022/06/26 01:22:15;;;;;;;8.70;2.10;;;;;;;17.18;71.93;100804.59;5087197;28;20427;-71
2022/06/26 01:24:42;;;;;;;10.55;2.40;;;;;;;17.17;72.25;100808.56;5056139;28;20169;-70
2022/06/26 01:27:10;;;;;;;6.38;2.17;;;;;;;17.45;74.20;100816.88;5086818;28;20079;-70
2022/06/26 01:29:38;;;;;;;9.40;2.17;;;;;;;17.27;74.22;100810.81;5055790;28;20040;-71
2022/06/26 01:32:06;;;;;;;13.13;2.40;;;;;;;17.35;71.31;100817.38;5043411;28;20053;-68
2022/06/26 01:34:34;;;;;;;9.85;2.88;;;;;;;17.26;73.89;100822.31;5076813;28;20076;-69
2022/06/26 01:37:04;;;;;;;4.40;1.63;;;;;;;17.38;72.48;100822.25;5050605;28;20052;-70
2022/06/26 01:39:32;;;;;;;9.25;1.95;;;;;;;17.43;72.87;100821.97;5070077;28;20049;-69
2022/06/26 01:41:59;;;;;;;6.70;2.20;;;;;;;17.51;72.78;100824.63;5065760;28;20636;-69
2022/06/26 01:44:27;;;;;;;8.80;1.92;;;;;;;17.30;72.91;100832.38;5047833;28;20040;-70
2022/06/26 01:46:54;;;;;;;6.07;2.15;;;;;;;17.29;74.66;100830.75;5047174;28;20064;-70
2022/06/26 01:49:25;;;;;;;5.93;2.25;;;;;;;17.35;73.82;100842.44;5059509;28;20423;-69
2022/06/26 01:51:54;;;;;;;8.63;2.55;;;;;;;17.81;73.04;100847.31;5047976;28;20067;-69
2022/06/26 01:54:21;;;;;;;6.93;2.20;;;;;;;17.57;73.00;100833.53;5060996;28;20052;-69
2022/06/26 01:56:50;;;;;;;8.77;1.98;;;;;;;17.44;71.67;100831.94;5064338;28;20674;-69
2022/06/26 01:59:18;;;;;;;5.53;2.17;;;;;;;17.73;73.51;100828.81;5067614;28;20048;-70
2022/06/26 02:01:46;;;;;;;10.02;2.70;;;;;;;17.44;71.29;100831.94;5042576;28;20068;-70
2022/06/26 02:04:16;;;;;;;11.73;2.53;;;;;;;17.43;71.90;100838.69;5039411;28;20087;-69
2022/06/26 02:06:44;;;;;;;7.53;2.10;;;;;;;17.43;74.42;100842.28;5055309;28;20507;-69
2022/06/26 02:14:52;;;;;;;8.60;2.30;;;;;;;17.89;70.94;100830.41;5056105;28;20044;-70
2022/06/26 02:17:19;;;;;;;9.05;2.55;;;;;;;17.92;72.74;100823.31;5060970;28;20062;-69
2022/06/26 02:19:47;;;;;;;9.35;2.25;;;;;;;17.99;72.73;100832.66;5045662;28;20503;-69
2022/06/26 02:22:14;;;;;;;11.10;2.38;;;;;;;17.90;72.56;100840.38;5071691;28;20052;-70
2022/06/26 02:24:44;;;;;;;7.47;2.30;;;;;;;17.63;70.97;100840.44;5075700;28;20538;-69
2022/06/26 02:27:11;;;;;;;8.80;2.50;;;;;;;17.79;73.78;100850.47;5079742;28;20576;-69
2022/06/26 02:29:39;;;;;;;8.27;2.20;;;;;;;17.43;70.38;100847.88;5060241;28;20048;-69
2022/06/26 02:32:07;;;;;;;13.32;2.30;;;;;;;17.53;73.26;100847.38;5057785;28;20067;-69
2022/06/26 02:34:34;;;;;;;8.65;2.70;;;;;;;17.48;73.58;100839.28;5073217;28;20044;-71
2022/06/26 02:37:02;;;;;;;9.15;2.83;;;;;;;17.74;73.40;100827.63;5056983;28;20073;-70
2022/06/26 02:39:29;;;;;;;9.10;2.28;;;;;;;17.43;73.88;100830.34;5060273;28;20058;-70
2022/06/26 02:41:56;;;;;;;8.68;2.90;;;;;;;17.43;73.08;100836.72;5056700;28;20040;-70
2022/06/26 02:44:26;;;;;;;14.80;3.43;;;;;;;17.29;72.91;100839.13;5054464;28;20048;-71
2022/06/26 02:46:53;;;;;;;10.52;3.22;;;;;;;17.45;71.95;100828.78;5054141;28;20781;-70
2022/06/26 02:49:20;;;;;;;6.70;2.47;;;;;;;17.45;73.95;100839.94;5040961;28;20067;-70
2022/06/26 02:51:48;;;;;;;9.63;3.40;;;;;;;17.97;72.97;100828.63;5064541;28;20606;-70
2022/06/26 02:54:15;;;;;;;13.05;3.75;;;;;;;17.99;70.98;100832.66;5061511;28;20676;-71
2022/06/26 02:56:42;;;;;;;12.25;2.80;;;;;;;17.50;70.61;100831.38;5081302;28;20058;-70
2022/06/26 02:59:10;;;;;;;9.18;2.70;;;;;;;17.68;73.03;100837.41;5087420;28;20484;-70
2022/06/26 03:01:37;;;;;;;6.78;2.90;;;;;;;17.86;71.75;100847.84;5054493;28;20169;-70
2022/06/26 03:04:24;;;;;;;7.75;2.45;;;;;;;18.01;72.16;100845.44;5087616;28;20083;-71
2022/06/26 03:06:58;;;;;;;11.80;2.65;;;;;;;17.70;72.18;100844.25;5060572;28;20044;-70
2022/06/26 03:09:25;;;;;;;10.35;2.65;;;;;;;17.72;71.52;100849.44;5034812;28;20049;-71
2022/06/26 03:11:53;;;;;;;10.05;3.20;;;;;;;17.46;71.29;100847.19;5055679;28;20544;-70
2022/06/26 03:14:22;;;;;;;10.40;2.63;;;;;;;17.34;71.16;100857.53;5067747;28;20058;-70
2022/06/26 03:16:53;;;;;;;13.10;2.80;;;;;;;17.61;72.31;100848.34;5039226;28;20419;-70
2022/06/26 03:19:23;;;;;;;10.45;2.70;;;;;;;17.77;72.90;100847.22;5047967;28;20057;-70
2022/06/26 03:21:50;;;;;;;9.63;2.70;;;;;;;17.61;71.98;100853.91;5057046;28;20431;-68
2022/06/26 03:24:18;;;;;;;12.20;3.00;;;;;;;17.24;72.56;100844.94;5047340;28;20723;-71
2022/06/26 03:26:46;;;;;;;12.90;2.75;;;;;;;17.45;73.69;100865.00;5044290;28;20049;-70
2022/06/26 03:29:14;;;;;;;11.43;2.67;;;;;;;17.44;72.12;100860.59;5029118;28;20056;-71
2022/06/26 03:31:41;;;;;;;14.77;3.22;;;;;;;17.45;73.63;100856.66;5070860;28;20060;-72
2022/06/26 03:34:12;;;;;;;8.73;3.22;;;;;;;17.32;72.34;100854.28;5062658;28;20052;-70
2022/06/26 03:36:44;;;;;;;16.50;4.35;;;;;;;17.33;71.93;100858.72;5064728;28;20052;-71
2022/06/26 03:39:11;;;;;;;12.48;5.57;;;;;;;17.55;73.26;100860.94;5052332;28;20518;-72
2022/06/26 03:41:40;;;;;;;14.30;3.33;;;;;;;17.39;73.80;100865.63;5038153;28;20048;-70
2022/06/26 03:44:08;;;;;;;9.90;2.45;;;;;;;17.13;72.37;100851.34;5055700;28;20051;-71
2022/06/26 03:46:35;;;;;;;11.18;2.45;;;;;;;16.65;72.76;100855.88;5047494;28;20052;-71
2022/06/26 03:49:03;;;;;;;10.10;3.00;;;;;;;16.61;74.41;100855.00;5039292;28;20052;-70
2022/06/26 03:51:33;;;;;;;11.80;2.75;;;;;;;16.94;74.99;100852.00;5069760;28;20063;-70
2022/06/26 03:54:04;;;;;;;10.43;2.47;;;;;;;17.22;74.49;100852.84;5063430;28;20091;-70
2022/06/26 03:56:32;;;;;;;10.10;2.58;;;;;;;17.21;72.77;100865.13;5037760;28;20045;-71
2022/06/26 03:58:59;;;;;;;9.57;2.83;;;;;;;16.93;74.71;100869.84;5048789;28;20140;-69
2022/06/26 04:01:27;;;;;;;13.55;2.50;;;;;;;17.16;72.77;100872.91;5053871;28;20052;-70
2022/06/26 04:03:54;;;;;;;11.50;2.30;;;;;;;17.13;72.54;100876.41;5059337;28;20799;-69
2022/06/26 04:06:22;;;;;;;11.32;2.60;;;;;;;17.38;73.07;100884.28;5074602;28;20055;-70
2022/06/26 04:08:49;;;;;;;13.20;3.20;;;;;;;17.26;70.62;100889.91;5054202;28;20056;-69
2022/06/26 04:11:17;;;;;;;12.98;2.60;;;;;;;17.38;72.31;100892.66;5056974;28;20415;-70
2022/06/26 04:13:52;;;;;;;7.93;2.42;;;;;;;17.81;71.75;100891.91;5063940;28;20060;-69
2022/06/26 04:16:20;;;;;;;8.88;2.20;;;;;;;17.83;70.43;100895.13;5041725;28;20048;-69
2022/06/26 04:18:50;;;;;;;11.13;2.40;;;;;;;18.05;69.80;100897.31;5027341;28;20048;-70
2022/06/26 04:21:17;;;;;;;6.07;2.00;;;;;;;18.14;69.24;100888.75;5029583;28;20049;-71
2022/06/26 04:23:45;;;;;;;8.52;2.88;;;;;;;17.72;68.19;100899.59;5067702;28;20061;-70
2022/06/26 04:26:17;;;;;;;9.50;2.50;;;;;;;17.57;68.60;100914.31;5035699;28;20487;-69
2022/06/26 04:28:46;;;;;;;10.75;2.40;;;;;;;17.44;68.38;100912.69;5085817;28;20056;-69
2022/06/26 04:31:13;;;;;;;10.20;2.10;;;;;;;17.18;70.69;100910.38;5073659;28;20043;-70
2022/06/26 04:33:41;;;;;;;5.72;2.10;;;;;;;17.57;70.13;100920.69;5055917;28;20049;-71
2022/06/26 04:36:09;;;;;;;9.07;2.45;;;;;;;17.75;71.29;100913.63;5079205;28;20047;-70
2022/06/26 04:38:37;;;;;;;7.25;2.05;;;;;;;18.04;67.03;100906.84;5056548;28;20527;-69
2022/06/26 04:41:31;;;;;;;7.10;2.42;;;;;;;17.15;67.69;100916.66;5063905;28;20062;-70
2022/06/26 04:43:52;;;;;;;8.52;2.20;;;;;;;17.67;71.31;100914.63;5076573;28;20052;-69
2022/06/26 04:46:19;;;;;;;12.10;2.38;;;;;;;17.57;67.48;100908.75;5061829;28;20052;-69
2022/06/26 04:48:47;;;;;;;10.18;2.63;;;;;;;17.49;67.67;100924.44;5058768;28;20053;-70
2022/06/26 04:51:17;;;;;;;;;;;;;;;17.59;69.03;100929.50;5041355;28;20517;-69
2022/06/26 04:53:44;;;;;;;14.77;2.75;;;;;;;16.98;68.05;100933.59;5040306;28;19920;-69
2022/06/26 04:56:11;;;;;;;10.50;2.40;;;;;;;16.99;71.51;100934.41;5069102;28;20044;-68
2022/06/26 04:58:46;;;;;;;8.25;2.38;;;;;;;17.36;71.74;100938.75;5060189;28;20118;-71
2022/06/26 05:01:14;;;;;;;11.23;3.22;;;;;;;16.93;69.11;100936.63;5077433;28;20060;-70
2022/06/26 05:04:20;;;;;;;11.57;2.70;;;;;;;17.13;72.30;100930.09;5023210;28;20094;-69
2022/06/26 05:07:18;;;;;;;13.30;2.45;;;;;;;17.49;67.46;100932.78;5005146;28;20049;-69
2022/06/26 05:09:45;;;;;;;12.05;2.65;;;;;;;16.85;67.22;100937.59;5027990;28;20530;-70
2022/06/26 05:12:13;;;;;;;16.83;2.90;;;;;;;16.88;69.46;100942.44;5059256;28;20044;-69
2022/06/26 05:15:00;;;;;;;9.65;2.47;;;;;;;17.33;69.50;100945.81;5043092;28;20063;-70
2022/06/26 05:17:48;;;;;;;14.02;2.38;;;;;;;17.94;69.87;100946.38;5081815;28;20462;-69
2022/06/26 05:20:17;;;;;;;13.45;2.80;;;;;;;18.14;69.52;100933.38;5059066;28;20048;-69
2022/06/26 05:22:45;;;;;;;11.52;2.35;;;;;;;18.30;67.44;100937.78;5047920;28;20056;-69
2022/06/26 05:25:14;;;;;;;14.15;2.65;;;;;;;18.15;68.34;100929.44;5052838;28;20055;-69
2022/06/26 05:27:44;;;;;;;13.13;2.60;;;;;;;18.03;67.18;100943.44;5067782;28;20048;-70
2022/06/26 05:30:12;;;;;;;9.98;2.53;;;;;;;17.60;68.16;100947.84;5072645;28;20048;-70
2022/06/26 05:32:41;;;;;;;10.57;2.17;;;;;;;17.87;69.71;100932.25;5038629;28;20048;-69
2022/06/26 05:35:13;;;;;;;11.80;2.50;;;;;;;18.07;66.13;100941.53;5066658;28;20043;-71
2022/06/26 05:37:40;;;;;;;10.85;2.85;;;;;;;18.08;67.39;100952.34;5071915;28;20052;-70
2022/06/26 05:40:11;;;;;;;7.20;2.05;;;;;;;18.19;67.13;100949.81;5045543;28;20486;-70
2022/06/26 05:42:41;;;;;;;8.18;2.80;;;;;;;18.18;67.18;100949.03;5058890;28;20128;-70
2022/06/26 05:45:10;;;;;;;9.35;2.88;;;;;;;18.14;67.26;100953.69;5051283;28;20068;-70
2022/06/26 05:47:38;;;;;;;11.95;2.60;;;;;;;17.95;63.68;100968.34;5043731;28;20040;-70
2022/06/26 05:50:25;;;;;;;10.63;2.38;;;;;;;18.03;67.42;100947.03;5057459;28;20068;-69
2022/06/26 05:52:57;;;;;;;8.80;2.40;;;;;;;17.99;65.92;100948.94;5037131;28;20051;-70
2022/06/26 05:55:40;;;;;;;13.43;2.15;;;;;;;17.63;65.29;100951.88;5062414;28;20051;-70
2022/06/26 05:58:40;;;;;;;6.05;1.92;;;;;;;17.53;65.99;100952.38;5045106;28;20057;-70
2022/06/26 06:01:26;;;;;;;9.65;2.20;;;;;;;17.93;67.43;100950.34;5060797;28;20056;-70
2022/06/26 06:04:00;;;;;;;14.43;2.35;;;;;;;18.37;66.42;100959.47;5060588;28;20045;-70
2022/06/26 06:06:28;;;;;;;9.43;2.22;;;;;;;18.57;64.17;100950.84;5055949;28;20522;-70
2022/06/26 06:08:55;;;;;;;9.95;2.60;;;;;;;18.62;64.77;100949.78;5078026;28;20052;-70
2022/06/26 06:11:23;;;;;;;10.43;1.85;;;;;;;18.16;60.84;100958.91;5048004;28;20063;-71
2022/06/26 06:13:51;;;;;;;11.18;2.60;;;;;;;17.83;64.74;100964.81;5043369;28;20048;-71
2022/06/26 06:16:19;;;;;;;10.40;2.05;;;;;;;17.76;64.64;100968.22;5065579;28;20052;-70
2022/06/26 06:18:47;;;;;;;10.27;2.03;;;;;;;18.27;65.08;100957.22;5039766;28;20063;-70
2022/06/26 06:21:15;;;;;;;6.88;1.95;;;;;;;18.25;63.48;100963.16;5048470;28;20052;-70
2022/06/26 06:23:43;;;;;;;9.20;1.90;;;;;;;18.27;63.32;100963.59;5050180;28;20056;-73
2022/06/26 06:26:11;;;;;;;10.65;2.63;;;;;;;18.37;64.70;100970.63;5061158;28;20063;-72
2022/06/26 06:28:40;;;;;;;11.50;2.50;;;;;;;18.92;62.83;100976.00;5057572;28;20511;-72
2022/06/26 06:31:09;;;;;;;11.35;2.38;;;;;;;18.59;60.69;100972.81;5040393;28;20091;-72
2022/06/26 06:33:37;;;;;;;8.73;2.20;;;;;;;18.83;62.55;100978.19;5074159;28;20052;-73
2022/06/26 06:36:05;;;;;;;7.70;1.90;;;;;;;18.71;58.98;100979.09;5089685;28;20048;-72
2022/06/26 06:38:33;;;;;;;13.88;2.47;;;;;;;18.72;60.12;100980.75;5041702;28;20483;-72
2022/06/26 06:41:05;;;;;;;7.13;1.92;;;;;;;18.85;61.17;100979.44;5058868;28;20641;-72
2022/06/26 06:43:49;;;;;;;11.38;2.40;;;;;;;18.75;58.70;100981.97;5068428;28;20556;-71
2022/06/26 06:46:26;;;;;;;11.60;2.65;;;;;;;18.85;59.34;100987.00;5072436;28;20380;-71
2022/06/26 06:49:04;;;;;;;13.52;2.38;;;;;;;18.80;57.17;100988.09;5044115;28;20060;-73
2022/06/26 06:51:36;;;;;;;9.55;2.45;;;;;;;18.79;57.32;100994.06;5038977;28;20061;-71
2022/06/26 06:54:03;;;;;;;10.25;2.15;;;;;;;18.64;57.72;100989.28;5060555;28;20058;-71
2022/06/26 06:56:31;;;;;;;11.57;2.33;;;;;;;18.88;59.22;100987.09;5053331;28;20040;-72
2022/06/26 06:59:00;;;;;;;12.63;2.47;;;;;;;18.82;56.87;100990.53;5052080;28;20052;-72
2022/06/26 07:01:27;;;;;;;14.18;2.83;;;;;;;19.05;57.44;100991.50;5058272;28;20059;-74
2022/06/26 07:03:55;;;;;;;11.20;2.33;;;;;;;18.86;55.27;100999.81;5033249;28;20045;-71
2022/06/26 07:06:22;;;;;;;10.82;2.15;;;;;;;18.91;55.77;100996.72;5072718;28;20049;-73
2022/06/26 07:08:52;;;;;;;12.35;2.60;;;;;;;19.13;57.58;100998.03;5055231;28;20048;-72
2022/06/26 07:11:20;;;;;;;11.27;2.50;;;;;;;19.19;55.27;101000.19;5054625;28;20057;-73
2022/06/26 07:13:48;;;;;;;10.13;2.45;;;;;;;18.80;55.33;100996.47;5058049;28;20052;-72
2022/06/26 07:16:17;;;;;;;7.15;1.90;;;;;;;18.91;54.81;101019.06;5064302;28;20051;-73
2022/06/26 07:18:44;;;;;;;14.23;1.88;;;;;;;19.13;54.67;101023.97;5025235;28;20056;-71
2022/06/26 07:21:12;;;;;;;10.95;2.22;;;;;;;19.07;53.72;101015.06;5078532;28;20048;-71
2022/06/26 07:23:41;;;;;;;10.33;2.57;;;;;;;19.24;54.97;101016.66;5055643;28;20639;-71
2022/06/26 07:26:20;;;;;;;11.65;2.17;;;;;;;19.51;54.03;101026.09;5039303;28;20294;-70
2022/06/26 07:28:47;;;;;;;14.15;2.58;;;;;;;19.44;52.37;101031.50;5037388;28;20057;-71
2022/06/26 07:31:15;;;;;;;6.80;1.80;;;;;;;19.17;50.72;101038.84;5070589;28;20052;-72
2022/06/26 07:36:30;;;;;;;6.50;1.80;;;;;;;19.24;50.53;101040.97;5036510;28;20056;-71
2022/06/26 07:38:58;;;;;;;10.15;2.33;;;;;;;19.25;49.75;101037.03;5070950;28;20052;-70
2022/06/26 07:41:25;;;;;;;9.35;1.70;;;;;;;19.34;49.15;101038.47;5071334;28;20156;-68
2022/06/26 07:44:00;;;;;;;9.65;1.83;;;;;;;19.49;48.01;101037.59;5041800;28;20067;-70
2022/06/26 07:46:27;;;;;;;11.98;1.90;;;;;;;19.94;47.67;101037.78;5029019;28;20048;-69
2022/06/26 07:48:55;;;;;;;16.02;2.00;;;;;;;19.59;45.80;101039.84;5054686;28;20056;-69
2022/06/26 07:51:23;;;;;;;10.68;2.00;;;;;;;20.17;45.58;101038.66;5038954;28;20056;-69
2022/06/26 07:53:50;;;;;;;7.88;1.95;;;;;;;20.23;45.68;101043.97;5077581;28;20122;-69
2022/06/26 07:56:18;;;;;;;10.13;2.05;;;;;;;19.35;47.24;101040.09;5059306;28;20407;-70
2022/06/26 07:58:45;;;;;;;5.50;1.58;;;;;;;18.87;48.44;101046.06;5086152;28;20052;-70
2022/06/26 08:01:13;;;;;;;8.82;2.00;;;;;;;19.61;49.03;101040.28;5053407;28;20490;-70
2022/06/26 08:03:44;;;;;;;4.57;1.48;;;;;;;19.51;46.60;101032.47;5071053;28;20052;-68
2022/06/26 08:06:12;;;;;;;7.70;2.25;;;;;;;20.00;46.51;101027.91;5061246;28;20052;-69
2022/06/26 08:08:40;;;;;;;7.25;1.85;;;;;;;20.43;45.61;101034.38;5065534;28;20064;-68
2022/06/26 08:11:07;;;;;;;7.93;2.10;;;;;;;20.42;45.39;101030.75;5053047;28;20037;-71
2022/06/26 08:13:35;;;;;;;10.82;1.88;;;;;;;20.47;45.37;101026.84;5063189;28;20059;-69
2022/06/26 08:16:02;;;;;;;10.35;1.92;;;;;;;20.47;46.30;101027.63;5061370;28;20045;-68
2022/06/26 08:18:30;;;;;;;9.88;1.80;;;;;;;20.46;46.24;101033.63;5074303;28;20431;-67
2022/06/26 08:20:57;;;;;;;8.48;1.67;;;;;;;20.75;46.89;101024.53;5088580;28;20044;-67
2022/06/26 08:23:24;;;;;;;8.07;1.70;;;;;;;20.90;45.73;101023.59;5076755;28;20063;-66
2022/06/26 08:25:52;;;;;;;9.60;1.95;;;;;;;20.87;45.12;101024.34;5054279;28;20049;-68
2022/06/26 08:28:19;;;;;;;9.20;2.55;;;;;;;20.91;45.19;101028.81;5055590;28;20053;-68
2022/06/26 08:30:47;;;;;;;7.78;1.77;;;;;;;21.15;45.24;101022.81;5067232;28;20052;-68
2022/06/26 08:33:14;;;;;;;10.38;1.90;;;;;;;21.30;43.35;101025.84;5063529;28;20060;-66
2022/06/26 08:35:41;;;;;;;11.60;1.98;;;;;;;21.04;43.83;101023.84;5075702;28;20515;-67
2022/06/26 08:38:08;;;;;;;9.73;2.40;;;;;;;20.63;44.54;101024.72;5092538;28;20052;-68
2022/06/26 08:40:36;;;;;;;11.30;3.20;;;;;;;20.33;44.06;101021.78;5062323;28;20056;-69
2022/06/26 08:43:05;;;;;;;13.75;3.63;;;;;;;20.79;44.32;101022.59;5065044;28;20052;-68
2022/06/26 08:45:33;;;;;;;7.25;1.48;;;;;;;21.04;43.82;101024.63;5077420;28;20044;-68
2022/06/26 08:48:01;;;;;;;9.13;1.77;;;;;;;21.05;43.60;101019.84;5056196;28;20060;-69
2022/06/26 08:50:29;;;;;;;7.78;2.10;;;;;;;21.24;44.02;101030.94;5065998;28;20114;-69
2022/06/26 08:52:59;;;;;;;7.53;1.88;;;;;;;21.29;43.89;101022.22;5064214;28;20071;-70
2022/06/26 08:55:27;;;;;;;10.65;2.10;;;;;;;21.27;44.27;101026.59;5058397;28;20408;-70
2022/06/26 08:57:55;;;;;;;7.50;1.75;;;;;;;21.18;44.80;101016.44;5083840;28;20423;-68
2022/06/26 09:00:22;;;;;;;9.73;2.00;;;;;;;21.28;44.42;101015.00;5069120;28;20065;-68
2022/06/26 09:02:59;;;;;;;8.70;1.90;;;;;;;21.24;44.63;101014.97;5064491;28;20479;-68
2022/06/26 09:05:26;;;;;;;11.25;2.15;;;;;;;21.36;44.53;101002.69;5075335;28;20404;-70
2022/06/26 09:07:56;;;;;;;8.63;2.08;;;;;;;21.31;43.37;101005.03;5076539;28;20372;-70
2022/06/26 09:10:27;;;;;;;9.77;2.33;;;;;;;20.92;44.67;100993.22;5063123;28;20055;-69
2022/06/26 09:12:57;;;;;;;11.90;2.45;;;;;;;20.93;44.16;100994.81;5075955;28;20562;-69
2022/06/26 09:15:25;;;;;;;10.00;2.08;;;;;;;20.84;45.04;100991.47;5063278;28;21837;-68
2022/06/26 09:17:57;;;;;;;9.45;2.08;;;;;;;20.87;43.96;100994.34;5081808;28;20040;-70
2022/06/26 09:20:24;;;;;;;10.27;2.03;;;;;;;20.78;42.49;100990.97;5076560;28;20044;-68
2022/06/26 09:22:56;;;;;;;7.60;1.88;;;;;;;20.82;42.69;100985.44;5056116;28;20063;-67
2022/06/26 09:25:37;;;;;;;8.68;1.80;;;;;;;21.46;42.05;100981.63;5077363;28;20158;-65
2022/06/26 09:28:13;;;;;;;6.53;1.60;;;;;;;21.31;42.38;100982.59;5066014;28;20439;-69
2022/06/26 09:30:54;;;;;;;9.95;2.10;;;;;;;21.70;40.31;100993.16;5079493;28;20074;-67
2022/06/26 09:33:35;;;;;;;5.88;1.75;;;;;;;21.65;40.29;100990.69;5059024;28;20062;-67
2022/06/26 09:36:04;;;;;;;7.57;2.00;;;;;;;21.71;40.26;100993.94;5082821;28;20055;-66
2022/06/26 09:38:35;;;;;;;8.35;1.88;;;;;;;20.86;41.07;100992.72;5070365;28;20049;-67
2022/06/26 09:41:05;;;;;;;5.10;1.38;;;;;;;20.13;42.78;100992.22;5049890;28;20051;-68
2022/06/26 09:43:37;;;;;;;6.32;1.75;;;;;;;20.48;42.81;100986.47;5056168;28;20060;-73
2022/06/26 09:46:10;;;;;;;8.73;1.75;;;;;;;20.99;41.98;100987.75;5089110;28;20044;-68
2022/06/26 09:48:38;;;;;;;6.20;1.55;;;;;;;21.43;40.54;100980.38;5053710;28;20045;-67
2022/06/26 09:51:09;;;;;;;8.75;1.52;;;;;;;21.56;39.90;100986.56;5054309;28;20063;-69
2022/06/26 09:53:37;;;;;;;5.35;1.52;;;;;;;21.80;38.55;100978.50;5077147;28;20049;-68
2022/06/26 09:56:05;;;;;;;9.20;1.77;;;;;;;21.67;37.60;100988.28;5077853;28;20492;-72
2022/06/26 09:58:33;;;;;;;5.82;1.60;;;;;;;21.61;38.67;100986.22;5074515;28;20055;-68
2022/06/26 10:06:36;;;;;;;6.80;2.00;;;;;;;22.10;39.13;100978.44;5065702;28;20048;-67
2022/06/26 10:09:07;;;;;;;6.53;2.35;;;;;;;22.24;38.91;100978.56;5058619;28;20040;-67
2022/06/26 10:11:38;;;;;;;10.65;3.75;;;;;;;22.32;38.91;100977.44;5076714;28;20052;-66
2022/06/26 10:14:10;;;;;;;;;;;;;;;22.31;38.06;100975.84;5073146;28;20064;-65
2022/06/26 10:17:03;;;;;;;4.65;1.40;;;;;;;21.84;37.68;100964.50;5040546;28;19924;-67
2022/06/26 10:19:46;;;;;;;10.00;2.15;;;;;;;22.05;38.15;100971.16;5082607;28;20048;-67
2022/06/26 10:22:14;;;;;;;8.38;2.13;;;;;;;22.07;38.07;100970.78;5047704;28;20044;-67
2022/06/26 10:25:08;;;;;;;4.85;1.60;;;;;;;21.51;38.80;100981.28;5038751;28;20044;-67
2022/06/26 10:27:37;;;;;;;9.95;2.60;;;;;;;21.36;39.45;100979.50;5044786;28;20071;-64
2022/06/26 10:30:17;;;;;;;9.35;2.45;;;;;;;21.81;39.33;100966.06;5055351;28;20049;-65
2022/06/26 10:32:45;;;;;;;8.35;1.90;;;;;;;21.94;39.99;100963.81;5054187;28;20071;-66
2022/06/26 10:35:13;;;;;;;9.25;1.95;;;;;;;22.02;39.73;100971.13;5071216;28;20414;-66
2022/06/26 10:37:47;;;;;;;6.30;2.10;;;;;;;22.24;39.59;100972.97;5077225;28;20084;-65
2022/06/26 10:43:13;;;;;;;10.20;2.65;;;;;;;22.32;39.06;100978.25;5074965;28;20506;-67
2022/06/26 10:45:41;;;;;;;8.48;3.05;;;;;;;22.31;37.95;100979.47;5059937;28;20048;-66
2022/06/26 10:48:19;;;;;;;7.75;2.45;;;;;;;22.20;38.04;100984.16;5072905;28;20523;-65
2022/06/26 10:51:01;;;;;;;10.57;3.05;;;;;;;22.13;38.46;100989.69;5073251;28;20048;-66
2022/06/26 10:53:30;;;;;;;10.05;2.58;;;;;;;22.08;37.57;100986.41;5079299;28;20048;-65
2022/06/26 10:56:03;;;;;;;8.68;3.72;;;;;;;22.08;38.04;100980.81;5076423;28;20092;-66
2022/06/26 10:58:37;;;;;;;8.88;2.63;;;;;;;22.31;38.36;100973.03;5061743;28;20063;-66
2022/06/26 11:01:08;;;;;;;6.22;1.80;;;;;;;22.41;37.86;100966.69;5075254;28;20044;-67
2022/06/26 11:03:36;;;;;;;6.45;2.13;;;;;;;22.37;38.37;100967.88;5079219;28;20052;-66
2022/06/26 11:06:08;;;;;;;9.20;2.08;;;;;;;22.60;38.74;100968.50;5058742;28;20048;-66
2022/06/26 11:08:43;;;;;;;7.85;2.40;;;;;;;22.75;38.96;100967.44;5089219;28;20048;-67
2022/06/26 11:11:20;;;;;;;8.18;2.13;;;;;;;22.64;38.92;100964.53;5058807;28;20044;-67
2022/06/26 11:13:55;;;;;;;7.63;2.33;;;;;;;22.52;39.56;100949.94;5068800;28;20492;-67
2022/06/26 11:16:43;;;;;;;4.55;1.70;;;;;;;22.52;38.63;100961.19;5069133;28;20044;-66
2022/06/26 11:19:26;;;;;;;6.97;1.98;;;;;;;22.71;38.63;100963.78;5068220;28;20064;-67
2022/06/26 11:22:10;;;;;;;8.88;2.10;;;;;;;22.73;39.42;100950.16;5073041;28;20063;-66
2022/06/26 11:24:48;;;;;;;8.32;1.88;;;;;;;22.51;38.75;100954.75;5051601;28;20052;-66
2022/06/26 11:27:26;;;;;;;7.68;2.13;;;;;;;22.90;38.62;100946.66;5077821;28;20066;-65
2022/06/26 11:29:54;;;;;;;8.05;1.80;;;;;;;23.01;38.65;100951.16;5043717;28;20055;-65
2022/06/26 11:32:22;;;;;;;5.88;1.90;;;;;;;23.20;37.79;100948.09;5056513;28;20645;-66
2022/06/26 11:34:51;;;;;;;8.52;2.00;;;;;;;22.95;37.68;100944.28;5079481;28;20048;-66
2022/06/26 11:37:35;;;;;;;8.10;1.93;;;;;;;22.90;37.96;100941.84;5077140;28;20053;-66
2022/06/26 11:40:14;;;;;;;15.07;9.23;;;;;;;23.07;37.68;100943.16;5072314;28;20306;-67
2022/06/26 11:42:41;;;;;;;7.50;2.63;;;;;;;23.21;37.61;100941.25;5064560;28;20063;-66
2022/06/26 11:45:09;;;;;;;9.98;2.20;;;;;;;23.48;37.45;100955.88;5062071;28;20056;-67
2022/06/26 11:47:37;;;;;;;5.07;1.65;;;;;;;23.27;37.33;100945.31;5055384;28;20040;-67
2022/06/26 11:50:07;;;;;;;6.38;2.10;;;;;;;23.00;36.92;100945.91;5056015;28;20044;-67
2022/06/26 11:52:34;;;;;;;6.65;1.88;;;;;;;22.63;37.65;100945.28;5059549;28;20466;-66